sensor_id;sensor_type;location;lat;lon;timestamp;pressure;altitude;pressure_sealevel;temperature;humidity
47670;BME280;33408;52.062;11.722;2024-03-02T00:01:24;100143.00;;;5.14;100.00
47670;BME280;33408;52.062;11.722;2024-03-02T00:03:52;100137.84;;;5.14;100.00
47670;BME280;33408;52.062;11.722;2024-03-02T00:06:20;100145.53;;;5.17;100.00
47670;BME280;33408;52.062;11.722;2024-03-02T00:08:47;100132.63;;;5.26;100.00
47670;BME280;33408;52.062;11.722;2024-03-02T00:11:14;100134.38;;;5.18;100.00
47670;BME280;33408;52.062;11.722;2024-03-02T00:13:41;100124.91;;;5.27;100.00
47670;BME280;33408;52.062;11.722;2024-03-02T00:16:08;100130.81;;;5.39;100.00
47670;BME280;33408;52.062;11.722;2024-03-02T00:18:36;100119.69;;;5.40;100.00
47670;BME280;33408;52.062;11.722;2024-03-02T00:21:06;100121.31;;;5.48;100.00
47670;BME280;33408;52.062;11.722;2024-03-02T00:23:35;100123.84;;;5.58;100.00
47670;BME280;33408;52.062;11.722;2024-03-02T00:26:02;100129.84;;;5.57;100.00
47670;BME280;33408;52.062;11.722;2024-03-02T00:28:31;100127.28;;;5.54;100.00
47670;BME280;33408;52.062;11.722;2024-03-02T00:31:02;100119.53;;;5.60;100.00
47670;BME280;33408;52.062;11.722;2024-03-02T00:33:32;100118.69;;;5.58;100.00
47670;BME280;33408;52.062;11.722;2024-03-02T00:35:59;100122.13;;;5.54;100.00
47670;BME280;33408;52.062;11.722;2024-03-02T00:38:30;100111.91;;;5.49;100.00
47670;BME280;33408;52.062;11.722;2024-03-02T00:40:58;100106.63;;;5.68;100.00
47670;BME280;33408;52.062;11.722;2024-03-02T00:43:43;100106.56;;;5.74;100.00
47670;BME280;33408;52.062;11.722;2024-03-02T00:46:15;100106.59;;;5.69;100.00
47670;BME280;33408;52.062;11.722;2024-03-02T00:48:48;100101.41;;;5.75;100.00
47670;BME280;33408;52.062;11.722;2024-03-02T00:51:17;100108.28;;;5.73;100.00
47670;BME280;33408;52.062;11.722;2024-03-02T00:53:45;100102.28;;;5.71;100.00
47670;BME280;33408;52.062;11.722;2024-03-02T00:56:12;100112.63;;;5.66;100.00
47670;BME280;33408;52.062;11.722;2024-03-02T00:58:39;100109.25;;;5.60;100.00
47670;BME280;33408;52.062;11.722;2024-03-02T01:01:05;100112.03;;;5.34;100.00
47670;BME280;33408;52.062;11.722;2024-03-02T01:03:32;100114.69;;;5.15;100.00
47670;BME280;33408;52.062;11.722;2024-03-02T01:05:59;100110.38;;;5.25;100.00
47670;BME280;33408;52.062;11.722;2024-03-02T01:08:25;100108.59;;;5.33;100.00
47670;BME280;33408;52.062;11.722;2024-03-02T01:10:54;100110.31;;;5.33;100.00
47670;BME280;33408;52.062;11.722;2024-03-02T01:13:21;100106.03;;;5.35;100.00
47670;BME280;33408;52.062;11.722;2024-03-02T01:15:48;100104.28;;;5.38;100.00
47670;BME280;33408;52.062;11.722;2024-03-02T01:18:15;100099.16;;;5.37;100.00
47670;BME280;33408;52.062;11.722;2024-03-02T01:20:41;100099.94;;;5.46;100.00
47670;BME280;33408;52.062;11.722;2024-03-02T01:23:07;100097.28;;;5.56;100.00
47670;BME280;33408;52.062;11.722;2024-03-02T01:25:34;100097.25;;;5.60;100.00
47670;BME280;33408;52.062;11.722;2024-03-02T01:28:04;100092.09;;;5.62;100.00
47670;BME280;33408;52.062;11.722;2024-03-02T01:30:30;100093.72;;;5.71;100.00
47670;BME280;33408;52.062;11.722;2024-03-02T01:32:57;100092.84;;;5.75;100.00
47670;BME280;33408;52.062;11.722;2024-03-02T01:35:24;100091.16;;;5.71;100.00
47670;BME280;33408;52.062;11.722;2024-03-02T01:37:52;100095.50;;;5.65;100.00
47670;BME280;33408;52.062;11.722;2024-03-02T01:40:18;100097.34;;;5.48;100.00
47670;BME280;33408;52.062;11.722;2024-03-02T01:42:45;100104.31;;;5.35;100.00
47670;BME280;33408;52.062;11.722;2024-03-02T01:45:13;100098.47;;;5.05;100.00
47670;BME280;33408;52.062;11.722;2024-03-02T01:47:40;100097.63;;;5.06;100.00
47670;BME280;33408;52.062;11.722;2024-03-02T01:50:07;100095.84;;;5.18;100.00
47670;BME280;33408;52.062;11.722;2024-03-02T01:52:34;100095.03;;;5.14;100.00
47670;BME280;33408;52.062;11.722;2024-03-02T01:55:01;100089.84;;;5.22;100.00
47670;BME280;33408;52.062;11.722;2024-03-02T01:57:29;100088.97;;;5.23;100.00
47670;BME280;33408;52.062;11.722;2024-03-02T01:59:56;100087.19;;;5.28;100.00
47670;BME280;33408;52.062;11.722;2024-03-02T02:02:24;100093.19;;;5.33;100.00
47670;BME280;33408;52.062;11.722;2024-03-02T02:04:51;100088.00;;;5.38;100.00
47670;BME280;33408;52.062;11.722;2024-03-02T02:07:17;100084.53;;;5.42;100.00
47670;BME280;33408;52.062;11.722;2024-03-02T02:09:44;100091.34;;;5.51;100.00
47670;BME280;33408;52.062;11.722;2024-03-02T02:12:11;100083.63;;;5.49;100.00
47670;BME280;33408;52.062;11.722;2024-03-02T02:14:37;100087.88;;;5.55;100.00
47670;BME280;33408;52.062;11.722;2024-03-02T02:17:05;100086.28;;;5.38;100.00
47670;BME280;33408;52.062;11.722;2024-03-02T02:19:33;100088.84;;;5.41;100.00
47670;BME280;33408;52.062;11.722;2024-03-02T02:22:01;100093.97;;;5.44;100.00
47670;BME280;33408;52.062;11.722;2024-03-02T02:24:27;100086.22;;;5.47;100.00
47670;BME280;33408;52.062;11.722;2024-03-02T02:26:57;100079.31;;;5.54;100.00
47670;BME280;33408;52.062;11.722;2024-03-02T02:29:23;100084.41;;;5.60;100.00
47670;BME280;33408;52.062;11.722;2024-03-02T02:31:50;100083.50;;;5.64;100.00
47670;BME280;33408;52.062;11.722;2024-03-02T02:34:17;100074.94;;;5.64;100.00
47670;BME280;33408;52.062;11.722;2024-03-02T02:36:43;100084.44;;;5.56;100.00
47670;BME280;33408;52.062;11.722;2024-03-02T02:39:14;100080.91;;;5.66;100.00
47670;BME280;33408;52.062;11.722;2024-03-02T02:41:41;100075.75;;;5.68;100.00
47670;BME280;33408;52.062;11.722;2024-03-02T02:44:07;100081.72;;;5.71;100.00
47670;BME280;33408;52.062;11.722;2024-03-02T02:46:36;100075.81;;;5.60;100.00
47670;BME280;33408;52.062;11.722;2024-03-02T02:49:03;100086.84;;;5.74;100.00
47670;BME280;33408;52.062;11.722;2024-03-02T02:51:30;100082.53;;;5.76;100.00
47670;BME280;33408;52.062;11.722;2024-03-02T02:53:57;100085.16;;;5.73;100.00
47670;BME280;33408;52.062;11.722;2024-03-02T02:56:25;100083.47;;;5.68;100.00
47670;BME280;33408;52.062;11.722;2024-03-02T02:58:51;100081.69;;;5.74;100.00
47670;BME280;33408;52.062;11.722;2024-03-02T03:01:18;100082.59;;;5.73;100.00
47670;BME280;33408;52.062;11.722;2024-03-02T03:03:45;100081.63;;;5.83;100.00
47670;BME280;33408;52.062;11.722;2024-03-02T03:06:12;100076.53;;;5.76;100.00
47670;BME280;33408;52.062;11.722;2024-03-02T03:08:38;100086.78;;;5.80;100.00
47670;BME280;33408;52.062;11.722;2024-03-02T03:11:05;100080.81;;;5.78;100.00
47670;BME280;33408;52.062;11.722;2024-03-02T03:13:33;100082.50;;;5.79;100.00
47670;BME280;33408;52.062;11.722;2024-03-02T03:16:00;100080.81;;;5.80;100.00
47670;BME280;33408;52.062;11.722;2024-03-02T03:18:27;100082.53;;;5.76;100.00
47670;BME280;33408;52.062;11.722;2024-03-02T03:20:53;100086.78;;;5.80;100.00
47670;BME280;33408;52.062;11.722;2024-03-02T03:23:20;100085.97;;;5.75;100.00
47670;BME280;33408;52.062;11.722;2024-03-02T03:25:46;100086.78;;;5.79;100.00
47670;BME280;33408;52.062;11.722;2024-03-02T03:28:13;100086.78;;;5.80;100.00
47670;BME280;33408;52.062;11.722;2024-03-02T03:30:41;100095.34;;;5.81;100.00
47670;BME280;33408;52.062;11.722;2024-03-02T03:33:08;100097.91;;;5.82;100.00
47670;BME280;33408;52.062;11.722;2024-03-02T03:35:35;100103.06;;;5.79;100.00
47670;BME280;33408;52.062;11.722;2024-03-02T03:38:03;100105.59;;;5.85;100.00
47670;BME280;33408;52.062;11.722;2024-03-02T03:40:29;100093.66;;;5.78;100.00
47670;BME280;33408;52.062;11.722;2024-03-02T03:42:56;100097.06;;;5.82;100.00
47670;BME280;33408;52.062;11.722;2024-03-02T03:45:22;100098.75;;;5.86;100.00
47670;BME280;33408;52.062;11.722;2024-03-02T03:47:52;100103.16;;;5.73;100.00
47670;BME280;33408;52.062;11.722;2024-03-02T03:50:19;100099.66;;;5.79;100.00
47670;BME280;33408;52.062;11.722;2024-03-02T03:52:45;100091.97;;;5.77;100.00
47670;BME280;33408;52.062;11.722;2024-03-02T03:55:12;100100.50;;;5.78;100.00
47670;BME280;33408;52.062;11.722;2024-03-02T03:57:39;100097.88;;;5.85;100.00
47670;BME280;33408;52.062;11.722;2024-03-02T04:00:07;100092.88;;;5.72;100.00
47670;BME280;33408;52.062;11.722;2024-03-02T04:02:35;100094.47;;;5.83;100.00
47670;BME280;33408;52.062;11.722;2024-03-02T04:05:04;100097.94;;;5.79;100.00
47670;BME280;33408;52.062;11.722;2024-03-02T04:07:34;100092.75;;;5.84;100.00
47670;BME280;33408;52.062;11.722;2024-03-02T04:10:06;100096.22;;;5.81;100.00
47670;BME280;33408;52.062;11.722;2024-03-02T04:12:34;100100.44;;;5.89;100.00
47670;BME280;33408;52.062;11.722;2024-03-02T04:15:00;100095.31;;;5.82;100.00
47670;BME280;33408;52.062;11.722;2024-03-02T04:17:29;100097.94;;;5.78;100.00
47670;BME280;33408;52.062;11.722;2024-03-02T04:19:56;100101.44;;;5.74;100.00
47670;BME280;33408;52.062;11.722;2024-03-02T04:22:23;100099.69;;;5.76;100.00
47670;BME280;33408;52.062;11.722;2024-03-02T04:24:50;100092.97;;;5.59;100.00
47670;BME280;33408;52.062;11.722;2024-03-02T04:27:17;100093.78;;;5.66;100.00
47670;BME280;33408;52.062;11.722;2024-03-02T04:29:43;100097.13;;;5.76;100.00
47670;BME280;33408;52.062;11.722;2024-03-02T04:32:10;100103.22;;;5.62;100.00
47670;BME280;33408;52.062;11.722;2024-03-02T04:34:36;100096.34;;;5.64;100.00
47670;BME280;33408;52.062;11.722;2024-03-02T04:37:03;100100.66;;;5.62;100.00
47670;BME280;33408;52.062;11.722;2024-03-02T04:39:31;100103.19;;;5.67;100.00
47670;BME280;33408;52.062;11.722;2024-03-02T04:41:57;100104.06;;;5.64;100.00
47670;BME280;33408;52.062;11.722;2024-03-02T04:44:24;100110.94;;;5.65;100.00
47670;BME280;33408;52.062;11.722;2024-03-02T04:46:51;100113.50;;;5.65;100.00
47670;BME280;33408;52.062;11.722;2024-03-02T04:49:17;100107.47;;;5.65;100.00
47670;BME280;33408;52.062;11.722;2024-03-02T04:51:44;100118.59;;;5.72;100.00
47670;BME280;33408;52.062;11.722;2024-03-02T04:54:10;100111.78;;;5.64;100.00
47670;BME280;33408;52.062;11.722;2024-03-02T04:56:40;100121.97;;;5.77;100.00
47670;BME280;33408;52.062;11.722;2024-03-02T04:59:10;100117.75;;;5.68;100.00
47670;BME280;33408;52.062;11.722;2024-03-02T05:01:36;100115.06;;;5.80;100.00
47670;BME280;33408;52.062;11.722;2024-03-02T05:04:03;100111.69;;;5.75;100.00
47670;BME280;33408;52.062;11.722;2024-03-02T05:06:30;100117.72;;;5.71;100.00
47670;BME280;33408;52.062;11.722;2024-03-02T05:08:56;100116.03;;;5.72;100.00
47670;BME280;33408;52.062;11.722;2024-03-02T05:11:23;100116.88;;;5.71;100.00
47670;BME280;33408;52.062;11.722;2024-03-02T05:14:15;100121.97;;;5.78;100.00
47670;BME280;33408;52.062;11.722;2024-03-02T05:16:41;100120.28;;;5.74;100.00
47670;BME280;33408;52.062;11.722;2024-03-02T05:19:08;100121.16;;;5.73;100.00
47670;BME280;33408;52.062;11.722;2024-03-02T05:21:35;100129.63;;;5.83;100.00
47670;BME280;33408;52.062;11.722;2024-03-02T05:24:01;100121.06;;;5.79;100.00
47670;BME280;33408;52.062;11.722;2024-03-02T05:26:28;100129.63;;;5.84;100.00
47670;BME280;33408;52.062;11.722;2024-03-02T05:28:55;100116.03;;;5.70;100.00
47670;BME280;33408;52.062;11.722;2024-03-02T05:31:22;100125.34;;;5.83;100.00
47670;BME280;33408;52.062;11.722;2024-03-02T05:33:49;100119.31;;;5.88;100.00
47670;BME280;33408;52.062;11.722;2024-03-02T05:36:16;100129.59;;;5.88;100.00
47670;BME280;33408;52.062;11.722;2024-03-02T05:38:42;100129.56;;;5.91;100.00
47670;BME280;33408;52.062;11.722;2024-03-02T05:41:09;100131.38;;;5.76;100.00
47670;BME280;33408;52.062;11.722;2024-03-02T05:43:36;100139.06;;;5.81;100.00
47670;BME280;33408;52.062;11.722;2024-03-02T05:46:03;100142.47;;;5.86;100.00
47670;BME280;33408;52.062;11.722;2024-03-02T05:48:31;100136.47;;;5.85;100.00
47670;BME280;33408;52.062;11.722;2024-03-02T05:50:58;100139.81;;;5.92;100.00
47670;BME280;33408;52.062;11.722;2024-03-02T05:53:24;100133.06;;;5.82;100.00
47670;BME280;33408;52.062;11.722;2024-03-02T05:55:51;100139.81;;;5.95;100.00
47670;BME280;33408;52.062;11.722;2024-03-02T05:58:20;100149.31;;;5.85;100.00
47670;BME280;33408;52.062;11.722;2024-03-02T06:00:58;100144.13;;;5.90;100.00
47670;BME280;33408;52.062;11.722;2024-03-02T06:03:24;100148.41;;;5.93;100.00
47670;BME280;33408;52.062;11.722;2024-03-02T06:05:52;100149.25;;;5.95;100.00
47670;BME280;33408;52.062;11.722;2024-03-02T06:08:19;100150.28;;;5.74;100.00
47670;BME280;33408;52.062;11.722;2024-03-02T06:10:45;100157.00;;;5.92;100.00
47670;BME280;33408;52.062;11.722;2024-03-02T06:13:12;100154.41;;;5.96;100.00
47670;BME280;33408;52.062;11.722;2024-03-02T06:15:39;100151.84;;;5.90;100.00
47670;BME280;33408;52.062;11.722;2024-03-02T06:18:05;100155.38;;;5.81;100.00
47670;BME280;33408;52.062;11.722;2024-03-02T06:20:33;100160.44;;;5.89;100.00
47670;BME280;33408;52.062;11.722;2024-03-02T06:23:01;100156.22;;;5.83;100.00
47670;BME280;33408;52.062;11.722;2024-03-02T06:25:28;100156.22;;;5.82;100.00
47670;BME280;33408;52.062;11.722;2024-03-02T06:27:54;100164.69;;;5.93;100.00
47670;BME280;33408;52.062;11.722;2024-03-02T06:30:21;100165.53;;;5.94;100.00
47670;BME280;33408;52.062;11.722;2024-03-02T06:32:47;100169.81;;;6.02;100.00
47670;BME280;33408;52.062;11.722;2024-03-02T06:35:14;100165.56;;;5.92;100.00
47670;BME280;33408;52.062;11.722;2024-03-02T06:37:41;100175.81;;;6.00;100.00
47670;BME280;33408;52.062;11.722;2024-03-02T06:40:09;100171.56;;;5.93;100.00
47670;BME280;33408;52.062;11.722;2024-03-02T06:42:36;100179.28;;;5.93;100.00
47670;BME280;33408;52.062;11.722;2024-03-02T06:45:03;100182.72;;;5.96;100.00
47670;BME280;33408;52.062;11.722;2024-03-02T06:47:30;100180.97;;;6.00;100.00
47670;BME280;33408;52.062;11.722;2024-03-02T06:49:56;100181.84;;;5.94;100.00
47670;BME280;33408;52.062;11.722;2024-03-02T06:52:23;100182.66;;;6.06;100.00
47670;BME280;33408;52.062;11.722;2024-03-02T06:54:50;100184.38;;;6.02;100.00
47670;BME280;33408;52.062;11.722;2024-03-02T06:57:18;100183.41;;;6.15;100.00
47670;BME280;33408;52.062;11.722;2024-03-02T06:59:46;100188.53;;;6.20;100.00
47670;BME280;33408;52.062;11.722;2024-03-02T07:02:12;100186.78;;;6.20;100.00
47670;BME280;33408;52.062;11.722;2024-03-02T07:04:39;100181.53;;;6.33;100.00
47670;BME280;33408;52.062;11.722;2024-03-02T07:07:05;100179.72;;;6.41;100.00
47670;BME280;33408;52.062;11.722;2024-03-02T07:09:32;100184.75;;;6.52;100.00
47670;BME280;33408;52.062;11.722;2024-03-02T07:11:59;100187.41;;;6.47;100.00
47670;BME280;33408;52.062;11.722;2024-03-02T07:14:27;100181.31;;;6.54;100.00
47670;BME280;33408;52.062;11.722;2024-03-02T07:17:15;100188.94;;;6.62;100.00
47670;BME280;33408;52.062;11.722;2024-03-02T07:19:42;100189.78;;;6.63;100.00
47670;BME280;33408;52.062;11.722;2024-03-02T07:22:08;100181.91;;;6.78;100.00
47670;BME280;33408;52.062;11.722;2024-03-02T07:24:39;100182.72;;;6.80;100.00
47670;BME280;33408;52.062;11.722;2024-03-02T07:27:07;100185.28;;;6.82;100.00
47670;BME280;33408;52.062;11.722;2024-03-02T07:29:35;100173.97;;;6.93;100.00
47670;BME280;33408;52.062;11.722;2024-03-02T07:32:02;100179.09;;;6.95;100.00
47670;BME280;33408;52.062;11.722;2024-03-02T07:34:31;100179.91;;;7.00;100.00
47670;BME280;33408;52.062;11.722;2024-03-02T07:36:58;100174.91;;;6.89;100.00
47670;BME280;33408;52.062;11.722;2024-03-02T07:39:25;100179.00;;;7.04;100.00
47670;BME280;33408;52.062;11.722;2024-03-02T07:41:51;100189.31;;;7.04;100.00
47670;BME280;33408;52.062;11.722;2024-03-02T07:44:18;100189.34;;;7.01;100.00
47670;BME280;33408;52.062;11.722;2024-03-02T07:46:46;100191.88;;;7.04;100.00
47670;BME280;33408;52.062;11.722;2024-03-02T07:49:15;100191.16;;;6.94;100.00
47670;BME280;33408;52.062;11.722;2024-03-02T07:51:43;100196.25;;;6.98;100.00
47670;BME280;33408;52.062;11.722;2024-03-02T07:54:10;100205.66;;;7.00;100.00
47670;BME280;33408;52.062;11.722;2024-03-02T07:56:36;100204.78;;;7.04;100.00
47670;BME280;33408;52.062;11.722;2024-03-02T07:59:03;100210.09;;;6.89;100.00
47670;BME280;33408;52.062;11.722;2024-03-02T08:01:32;100209.13;;;7.01;100.00
47670;BME280;33408;52.062;11.722;2024-03-02T08:04:00;100212.56;;;6.98;100.00
47670;BME280;33408;52.062;11.722;2024-03-02T08:06:30;100189.38;;;6.98;100.00
47670;BME280;33408;52.062;11.722;2024-03-02T08:08:57;100191.84;;;7.09;100.00
47670;BME280;33408;52.062;11.722;2024-03-02T08:11:24;100201.13;;;7.21;100.00
47670;BME280;33408;52.062;11.722;2024-03-02T08:13:53;100201.03;;;7.27;100.00
47670;BME280;33408;52.062;11.722;2024-03-02T08:16:21;100206.13;;;7.32;100.00
47670;BME280;33408;52.062;11.722;2024-03-02T08:18:49;100210.50;;;7.28;100.00
47670;BME280;33408;52.062;11.722;2024-03-02T08:21:18;100206.91;;;7.37;100.00
47670;BME280;33408;52.062;11.722;2024-03-02T08:23:44;100205.84;;;7.52;100.00
47670;BME280;33408;52.062;11.722;2024-03-02T08:26:11;100201.56;;;7.52;100.00
47670;BME280;33408;52.062;11.722;2024-03-02T08:28:38;100202.31;;;7.60;100.00
47670;BME280;33408;52.062;11.722;2024-03-02T08:31:06;100198.72;;;7.69;100.00
47670;BME280;33408;52.062;11.722;2024-03-02T08:33:32;100203.91;;;7.67;100.00
47670;BME280;33408;52.062;11.722;2024-03-02T08:36:00;100197.84;;;7.72;100.00
47670;BME280;33408;52.062;11.722;2024-03-02T08:38:28;100193.50;;;7.72;100.00
47670;BME280;33408;52.062;11.722;2024-03-02T08:40:54;100200.09;;;7.90;100.00
47670;BME280;33408;52.062;11.722;2024-03-02T08:43:21;100199.91;;;8.02;100.00
47670;BME280;33408;52.062;11.722;2024-03-02T08:45:48;100202.41;;;8.09;100.00
47670;BME280;33408;52.062;11.722;2024-03-02T08:48:16;100206.28;;;8.33;100.00
47670;BME280;33408;52.062;11.722;2024-03-02T08:50:43;100202.22;;;8.19;100.00
47670;BME280;33408;52.062;11.722;2024-03-02T08:53:09;100210.66;;;8.29;100.00
47670;BME280;33408;52.062;11.722;2024-03-02T08:55:37;100213.91;;;8.44;100.00
47670;BME280;33408;52.062;11.722;2024-03-02T08:58:04;100216.38;;;8.48;100.00
47670;BME280;33408;52.062;11.722;2024-03-02T09:00:31;100215.63;;;8.40;100.00
47670;BME280;33408;52.062;11.722;2024-03-02T09:02:58;100217.19;;;8.52;100.00
47670;BME280;33408;52.062;11.722;2024-03-02T09:05:25;100219.06;;;8.44;100.00
47670;BME280;33408;52.062;11.722;2024-03-02T09:07:51;100220.69;;;8.48;100.00
47670;BME280;33408;52.062;11.722;2024-03-02T09:10:18;100227.28;;;8.63;100.00
47670;BME280;33408;52.062;11.722;2024-03-02T09:12:48;100234.97;;;8.67;100.00
47670;BME280;33408;52.062;11.722;2024-03-02T09:15:15;100236.53;;;8.76;100.00
47670;BME280;33408;52.062;11.722;2024-03-02T09:17:42;100237.59;;;8.64;100.00
47670;BME280;33408;52.062;11.722;2024-03-02T09:20:10;100248.66;;;8.72;100.00
47670;BME280;33408;52.062;11.722;2024-03-02T09:22:37;100243.22;;;8.86;100.00
47670;BME280;33408;52.062;11.722;2024-03-02T09:25:04;100251.66;;;8.96;100.00
47670;BME280;33408;52.062;11.722;2024-03-02T09:27:32;100240.19;;;9.09;100.00
47670;BME280;33408;52.062;11.722;2024-03-02T09:30:00;100248.69;;;9.16;100.00
47670;BME280;33408;52.062;11.722;2024-03-02T09:32:27;100252.00;;;9.23;100.00
47670;BME280;33408;52.062;11.722;2024-03-02T09:34:53;100256.13;;;9.31;100.00
47670;BME280;33408;52.062;11.722;2024-03-02T09:37:21;100242.94;;;9.44;100.00
47670;BME280;33408;52.062;11.722;2024-03-02T09:39:48;100238.03;;;9.69;100.00
47670;BME280;33408;52.062;11.722;2024-03-02T09:42:14;100238.81;;;9.74;100.00
47670;BME280;33408;52.062;11.722;2024-03-02T09:44:42;100248.59;;;9.99;100.00
47670;BME280;33408;52.062;11.722;2024-03-02T09:47:10;100246.00;;;9.99;100.00
47670;BME280;33408;52.062;11.722;2024-03-02T09:49:37;100245.41;;;9.88;100.00
47670;BME280;33408;52.062;11.722;2024-03-02T09:52:04;100253.69;;;10.02;100.00
47670;BME280;33408;52.062;11.722;2024-03-02T09:54:32;100245.25;;;9.94;100.00
47670;BME280;33408;52.062;11.722;2024-03-02T09:56:59;100250.06;;;10.09;100.00
47670;BME280;33408;52.062;11.722;2024-03-02T09:59:27;100249.47;;;10.35;100.00
47670;BME280;33408;52.062;11.722;2024-03-02T10:01:58;100253.44;;;10.49;100.00
47670;BME280;33408;52.062;11.722;2024-03-02T10:04:27;100260.28;;;10.51;100.00
47670;BME280;33408;52.062;11.722;2024-03-02T10:07:12;100254.19;;;10.52;100.00
47670;BME280;33408;52.062;11.722;2024-03-02T10:09:40;100259.53;;;10.46;100.00
47670;BME280;33408;52.062;11.722;2024-03-02T10:12:09;100254.28;;;10.49;100.00
47670;BME280;33408;52.062;11.722;2024-03-02T10:14:37;100267.69;;;10.31;100.00
47670;BME280;33408;52.062;11.722;2024-03-02T10:17:04;100255.31;;;10.44;100.00
47670;BME280;33408;52.062;11.722;2024-03-02T10:19:33;100258.19;;;10.30;100.00
47670;BME280;33408;52.062;11.722;2024-03-02T10:22:00;100262.47;;;10.34;100.00
47670;BME280;33408;52.062;11.722;2024-03-02T10:24:35;100258.88;;;10.38;100.00
47670;BME280;33408;52.062;11.722;2024-03-02T10:27:07;100258.00;;;10.39;100.00
47670;BME280;33408;52.062;11.722;2024-03-02T10:29:37;100264.56;;;10.52;100.00
47670;BME280;33408;52.062;11.722;2024-03-02T10:32:04;100258.88;;;10.38;100.00
47670;BME280;33408;52.062;11.722;2024-03-02T10:34:33;100252.13;;;10.32;100.00
47670;BME280;33408;52.062;11.722;2024-03-02T10:36:59;100263.38;;;10.30;100.00
47670;BME280;33408;52.062;11.722;2024-03-02T10:39:26;100253.78;;;10.35;100.00
47670;BME280;33408;52.062;11.722;2024-03-02T10:41:55;100251.19;;;10.35;100.00
47670;BME280;33408;52.062;11.722;2024-03-02T10:44:23;100246.75;;;10.40;100.00
47670;BME280;33408;52.062;11.722;2024-03-02T10:46:52;100243.25;;;10.41;100.00
47670;BME280;33408;52.062;11.722;2024-03-02T10:49:20;100251.69;;;10.49;100.00
47670;BME280;33408;52.062;11.722;2024-03-02T10:51:50;100244.81;;;10.48;100.00
47670;BME280;33408;52.062;11.722;2024-03-02T10:54:17;100242.75;;;10.61;100.00
47670;BME280;33408;52.062;11.722;2024-03-02T10:56:51;100245.78;;;10.77;100.00
47670;BME280;33408;52.062;11.722;2024-03-02T10:59:26;100236.31;;;10.76;100.00
47670;BME280;33408;52.062;11.722;2024-03-02T11:01:55;100242.72;;;10.94;100.00
47670;BME280;33408;52.062;11.722;2024-03-02T11:04:24;100245.28;;;10.95;100.00
47670;BME280;33408;52.062;11.722;2024-03-02T11:06:56;100238.59;;;10.87;100.00
47670;BME280;33408;52.062;11.722;2024-03-02T11:09:27;100240.09;;;10.95;100.00
47670;BME280;33408;52.062;11.722;2024-03-02T11:12:00;100243.31;;;11.04;100.00
47670;BME280;33408;52.062;11.722;2024-03-02T11:14:30;100234.59;;;11.06;100.00
47670;BME280;33408;52.062;11.722;2024-03-02T11:16:58;100242.47;;;11.03;100.00
47670;BME280;33408;52.062;11.722;2024-03-02T11:19:25;100235.63;;;11.01;100.00
47670;BME280;33408;52.062;11.722;2024-03-02T11:21:55;100237.63;;;10.91;100.00
47670;BME280;33408;52.062;11.722;2024-03-02T11:24:32;100235.50;;;11.05;100.00
47670;BME280;33408;52.062;11.722;2024-03-02T11:27:03;100225.47;;;11.23;100.00
47670;BME280;33408;52.062;11.722;2024-03-02T11:29:45;100221.22;;;11.20;100.00
47670;BME280;33408;52.062;11.722;2024-03-02T11:32:17;100227.84;;;11.30;100.00
47670;BME280;33408;52.062;11.722;2024-03-02T11:34:45;100220.25;;;11.24;100.00
47670;BME280;33408;52.062;11.722;2024-03-02T11:37:16;100224.00;;;11.44;100.00
47670;BME280;33408;52.062;11.722;2024-03-02T11:39:44;100222.28;;;11.43;100.00
47670;BME280;33408;52.062;11.722;2024-03-02T11:42:12;100217.03;;;11.44;100.00
47670;BME280;33408;52.062;11.722;2024-03-02T11:44:42;100202.28;;;11.46;100.00
47670;BME280;33408;52.062;11.722;2024-03-02T11:47:11;100203.88;;;11.50;100.00
47670;BME280;33408;52.062;11.722;2024-03-02T11:49:41;100200.50;;;11.48;100.00
47670;BME280;33408;52.062;11.722;2024-03-02T11:52:11;100197.41;;;11.64;100.00
47670;BME280;33408;52.062;11.722;2024-03-02T11:54:41;100195.03;;;11.58;100.00
47670;BME280;33408;52.062;11.722;2024-03-02T11:57:12;100188.25;;;11.52;100.00
47670;BME280;33408;52.062;11.722;2024-03-02T11:59:40;100192.63;;;11.52;100.00
47670;BME280;33408;52.062;11.722;2024-03-02T12:02:14;100197.94;;;11.47;100.00
47670;BME280;33408;52.062;11.722;2024-03-02T12:04:41;100199.47;;;11.53;100.00
47670;BME280;33408;52.062;11.722;2024-03-02T12:07:08;100202.56;;;11.94;100.00
47670;BME280;33408;52.062;11.722;2024-03-02T12:09:35;100200.63;;;11.72;100.00
47670;BME280;33408;52.062;11.722;2024-03-02T12:12:05;100208.53;;;11.69;100.00
47670;BME280;33408;52.062;11.722;2024-03-02T12:14:32;100211.03;;;11.99;100.00
47670;BME280;33408;52.062;11.722;2024-03-02T12:16:59;100217.38;;;11.90;100.00
47670;BME280;33408;52.062;11.722;2024-03-02T12:19:27;100213.50;;;12.03;100.00
47670;BME280;33408;52.062;11.722;2024-03-02T12:21:55;100202.31;;;11.73;100.00
47670;BME280;33408;52.062;11.722;2024-03-02T12:24:23;100202.22;;;11.76;100.00
47670;BME280;33408;52.062;11.722;2024-03-02T12:26:50;100204.28;;;11.95;100.00
47670;BME280;33408;52.062;11.722;2024-03-02T12:29:20;100198.09;;;11.97;100.00
47670;BME280;33408;52.062;11.722;2024-03-02T12:31:48;100193.00;;;11.94;100.00
47670;BME280;33408;52.062;11.722;2024-03-02T12:34:15;100191.13;;;11.99;100.00
47670;BME280;33408;52.062;11.722;2024-03-02T12:36:42;100185.13;;;11.97;100.00
47670;BME280;33408;52.062;11.722;2024-03-02T12:39:13;100188.78;;;11.92;100.00
47670;BME280;33408;52.062;11.722;2024-03-02T12:41:41;100187.28;;;11.83;100.00